Time;durP1;ratioP1;P1;durP2;ratioP2;P2;SDS_P1;SDS_P2;PMS_P1;PMS_P2;Temp;Humidity;BMP_temperature;BMP_pressure;BME280_temperature;BME280_humidity;BME280_pressure;Samples;Min_cycle;Max_cycle;Signal;HPM_P1;HPM_P2
2022/02/09 00:02:48;;;;;;;6.55;2.70;;;9.90;99.90;;;;;;5054442;28;20055;-66
2022/02/09 00:05:28;;;;;;;4.78;2.70;;;10.00;99.90;;;;;;5071791;28;20048;-69
2022/02/09 00:10:22;;;;;;;6.22;2.15;;;10.00;99.90;;;;;;5054567;28;20103;-65
2022/02/09 01:57:46;;;;;;;15.32;8.10;;;10.10;99.90;;;;;;5054792;28;20051;-63
2022/02/09 02:00:13;;;;;;;9.27;5.20;;;10.20;99.90;;;;;;5063442;28;20060;-63
2022/02/09 02:02:41;;;;;;;5.35;3.00;;;10.20;99.90;;;;;;5060814;28;20101;-64
2022/02/09 02:05:07;;;;;;;4.15;2.70;;;10.20;99.90;;;;;;5023006;28;20050;-63
2022/02/09 02:07:54;;;;;;;6.57;2.08;;;10.10;99.90;;;;;;5046236;28;20048;-65
2022/02/09 02:10:34;;;;;;;5.10;1.70;;;10.10;99.90;;;;;;5049518;28;20066;-63
2022/02/09 02:16:14;;;;;;;2.67;1.30;;;10.10;99.90;;;;;;5046048;28;20053;-64
2022/02/09 02:18:28;;;;;;;3.40;1.58;;;10.10;99.90;;;;;;5049062;28;20492;-64
2022/02/09 02:23:42;;;;;;;5.03;1.45;;;10.20;99.90;;;;;;5035322;28;20485;-64
2022/02/09 02:26:22;;;;;;;2.40;1.30;;;10.20;99.90;;;;;;5038371;28;20049;-63
2022/02/09 02:37:40;;;;;;;3.78;1.35;;;10.20;99.90;;;;;;5060069;28;20048;-63
2022/02/09 02:57:01;;;;;;;2.35;0.90;;;10.30;99.90;;;;;;5064941;28;20049;-63
2022/02/09 03:14:33;;;;;;;1.23;0.85;;;10.30;99.90;;;;;;5069948;28;20268;-63
2022/02/09 03:17:05;;;;;;;2.72;0.75;;;10.30;99.90;;;;;;5060708;28;20072;-63
2022/02/09 03:22:21;;;;;;;1.98;1.08;;;10.30;99.90;;;;;;5052264;28;20063;-63
2022/02/09 03:27:31;;;;;;;1.98;0.85;;;10.20;99.90;;;;;;5068297;28;20052;-67
2022/02/09 03:51:32;;;;;;;3.53;1.20;;;10.00;99.90;;;;;;5057615;28;20052;-73
2022/02/09 03:54:25;;;;;;;1.67;1.05;;;10.00;99.90;;;;;;5071583;28;20051;-65
2022/02/09 03:57:11;;;;;;;2.28;1.00;;;10.00;99.90;;;;;;5053964;28;20045;-65
2022/02/09 03:59:38;;;;;;;4.57;1.15;;;10.00;99.90;;;;;;5062663;28;20044;-65
2022/02/09 04:02:06;;;;;;;2.28;1.00;;;10.00;99.90;;;;;;5055815;28;20052;-71
2022/02/09 04:04:32;;;;;;;2.08;0.93;;;10.00;99.90;;;;;;5067376;28;20044;-65
2022/02/09 04:07:01;;;;;;;2.92;1.00;;;10.00;99.90;;;;;;5062920;28;20385;-65
2022/02/09 04:09:31;;;;;;;1.83;0.90;;;10.00;99.90;;;;;;5057311;28;20390;-66
2022/02/09 04:12:10;;;;;;;7.18;1.25;;;10.00;99.90;;;;;;5058361;28;20480;-65
2022/02/09 04:17:24;;;;;;;2.20;0.70;;;10.00;99.90;;;;;;5064933;28;20044;-67
2022/02/09 04:38:59;;;;;;;2.25;1.20;;;10.00;99.90;;;;;;5059493;28;20056;-65
2022/02/09 04:41:54;;;;;;;1.40;0.60;;;10.00;99.90;;;;;;5054939;28;20045;-65
2022/02/09 04:57:53;;;;;;;1.98;0.90;;;10.00;99.90;;;;;;5052756;28;20049;-62
2022/02/09 05:03:37;;;;;;;1.75;0.95;;;9.90;99.90;;;;;;5069419;28;20052;-62
2022/02/09 05:30:11;;;;;;;1.77;1.13;;;9.70;99.90;;;;;;5053656;28;20527;-66
2022/02/09 05:32:38;;;;;;;0.98;0.63;;;9.80;99.90;;;;;;5057073;28;20045;-65
2022/02/09 05:35:05;;;;;;;2.25;0.82;;;9.70;99.90;;;;;;5064514;28;20052;-66
2022/02/09 05:37:32;;;;;;;2.70;1.05;;;9.80;99.90;;;;;;5039746;28;20048;-64
2022/02/09 05:39:59;;;;;;;2.22;0.68;;;9.80;99.90;;;;;;5070370;28;20052;-65
2022/02/09 05:42:26;;;;;;;1.83;0.60;;;9.80;99.90;;;;;;5062947;28;20052;-65
2022/02/09 05:44:53;;;;;;;1.23;0.52;;;9.80;99.90;;;;;;5048761;28;20041;-71
2022/02/09 05:50:02;;;;;;;1.15;0.70;;;9.80;99.90;;;;;;5062240;28;20036;-65
2022/02/09 05:52:53;;;;;;;1.13;0.93;;;9.80;99.90;;;;;;5053834;28;20401;-65
2022/02/09 05:55:37;;;;;;;2.80;0.98;;;9.70;99.90;;;;;;5056731;28;20472;-65
2022/02/09 05:59:04;;;;;;;2.78;0.85;;;9.60;99.90;;;;;;5045079;28;20036;-65
2022/02/09 06:00:54;;;;;;;3.58;1.08;;;9.50;99.90;;;;;;5043453;28;20056;-65
2022/02/09 06:03:21;;;;;;;2.45;0.90;;;9.40;99.90;;;;;;5061145;28;20087;-65
2022/02/09 06:05:48;;;;;;;2.70;1.00;;;9.40;99.90;;;;;;5064140;28;20041;-65
2022/02/09 06:08:15;;;;;;;1.90;0.93;;;9.30;99.90;;;;;;5043243;28;20048;-67
2022/02/09 06:10:49;;;;;;;1.70;1.00;;;9.30;99.90;;;;;;5066421;28;20044;-65
2022/02/09 06:13:27;;;;;;;2.00;1.00;;;9.30;99.90;;;;;;5063400;28;20045;-65
2022/02/09 06:21:13;;;;;;;2.30;1.60;;;9.10;99.90;;;;;;5062015;28;20059;-65
2022/02/09 06:23:40;;;;;;;3.72;1.48;;;9.00;99.90;;;;;;5050871;28;20091;-65
2022/02/09 06:26:07;;;;;;;4.10;1.92;;;9.00;99.90;;;;;;5068902;28;20060;-65
2022/02/09 06:28:34;;;;;;;2.92;1.52;;;9.00;99.90;;;;;;5062754;28;20048;-64
2022/02/09 06:31:01;;;;;;;2.90;1.60;;;8.90;99.90;;;;;;5070063;28;20440;-65
2022/02/09 06:33:28;;;;;;;2.65;1.60;;;8.80;99.90;;;;;;5072291;28;20507;-65
2022/02/09 06:35:58;;;;;;;3.95;2.03;;;8.80;99.90;;;;;;5075229;28;20044;-65
2022/02/09 06:38:25;;;;;;;3.25;2.10;;;8.80;99.90;;;;;;5072379;28;20048;-72
2022/02/09 06:40:54;;;;;;;5.57;3.03;;;8.70;99.90;;;;;;5073060;28;20055;-65
2022/02/09 06:43:21;;;;;;;7.10;2.67;;;8.70;99.90;;;;;;5058547;28;20051;-65
2022/02/09 06:45:48;;;;;;;3.47;2.47;;;8.70;99.90;;;;;;5060130;28;20041;-65
2022/02/09 06:48:17;;;;;;;4.53;2.28;;;8.60;99.90;;;;;;5063026;28;20045;-64
2022/02/09 06:50:52;;;;;;;5.35;2.05;;;8.60;99.90;;;;;;5060147;28;20044;-66
2022/02/09 06:55:56;;;;;;;26.23;18.67;;;8.70;99.90;;;;;;5057985;28;20048;-64
2022/02/09 07:01:03;;;;;;;4.35;3.25;;;8.80;99.90;;;;;;5068991;28;20055;-67
2022/02/09 07:03:30;;;;;;;4.60;2.25;;;8.80;99.90;;;;;;5037973;28;20132;-71
2022/02/09 07:05:57;;;;;;;6.75;2.22;;;8.80;99.90;;;;;;5055830;28;20056;-70
2022/02/09 07:08:24;;;;;;;3.70;1.85;;;8.80;99.90;;;;;;5054499;28;20048;-66
2022/02/09 07:10:51;;;;;;;7.25;2.33;;;8.70;99.90;;;;;;5071214;28;20055;-65
2022/02/09 07:13:18;;;;;;;3.33;1.40;;;8.70;99.90;;;;;;5055393;28;20075;-64
2022/02/09 07:15:50;;;;;;;6.07;2.63;;;8.70;99.90;;;;;;5063805;28;20041;-66
2022/02/09 07:18:17;;;;;;;17.52;12.75;;;8.70;99.90;;;;;;5056892;28;20105;-63
2022/02/09 07:23:36;;;;;;;3.45;1.77;;;8.80;99.90;;;;;;5053403;28;20053;-63
2022/02/09 07:26:11;;;;;;;4.38;1.60;;;8.80;99.90;;;;;;5058109;28;20052;-74
2022/02/09 07:28:38;;;;;;;4.20;1.58;;;8.80;99.90;;;;;;5059905;28;20094;-63
2022/02/09 07:31:09;;;;;;;4.50;1.30;;;8.70;99.90;;;;;;5049792;28;20484;-63
2022/02/09 07:33:37;;;;;;;3.65;1.60;;;8.70;99.90;;;;;;5053977;28;20507;-64
2022/02/09 07:36:04;;;;;;;2.80;1.58;;;8.70;99.90;;;;;;5043141;28;20044;-71
2022/02/09 07:38:31;;;;;;;3.72;1.27;;;8.70;99.90;;;;;;5054893;28;20059;-63
2022/02/09 07:41:00;;;;;;;2.53;1.40;;;8.70;99.90;;;;;;5066663;28;20049;-64
2022/02/09 07:43:45;;;;;;;3.03;1.70;;;8.70;99.90;;;;;;5064036;28;20049;-64
2022/02/09 07:54:02;;;;;;;3.42;1.40;;;8.70;99.90;;;;;;5064119;28;20044;-66
2022/02/09 07:56:40;;;;;;;2.67;1.42;;;8.70;99.90;;;;;;5052720;28;20064;-65
2022/02/09 07:59:12;;;;;;;3.75;1.33;;;8.60;99.90;;;;;;5054134;28;20049;-68
2022/02/09 08:01:39;;;;;;;2.22;1.27;;;8.60;99.90;;;;;;5059203;28;20491;-66
2022/02/09 08:04:06;;;;;;;4.80;1.50;;;8.60;99.90;;;;;;5062967;28;20103;-66
2022/02/09 08:06:34;;;;;;;4.28;1.95;;;8.60;99.90;;;;;;5052713;28;20049;-66
2022/02/09 08:09:06;;;;;;;4.03;1.63;;;8.70;99.90;;;;;;5047623;28;20045;-65
2022/02/09 08:11:48;;;;;;;4.57;1.45;;;8.70;99.90;;;;;;5052662;28;20476;-67
2022/02/09 08:28:47;;;;;;;2.85;1.48;;;9.40;99.90;;;;;;5072906;28;20102;-64
2022/02/09 08:33:44;;;;;;;2.00;1.17;;;9.60;99.90;;;;;;5052352;28;20075;-67
2022/02/09 08:36:12;;;;;;;3.58;1.33;;;9.70;99.90;;;;;;5051632;28;20057;-68
2022/02/09 08:38:42;;;;;;;2.92;1.52;;;9.70;99.90;;;;;;5055961;28;20041;-71
2022/02/09 08:41:09;;;;;;;2.92;1.38;;;9.70;99.90;;;;;;5035868;28;20060;-66
2022/02/09 08:43:37;;;;;;;2.95;1.35;;;9.70;99.90;;;;;;5052610;28;20107;-64
2022/02/09 08:46:04;;;;;;;3.53;1.23;;;9.70;99.90;;;;;;5035484;28;20084;-66
2022/02/09 08:48:31;;;;;;;4.47;1.60;;;9.80;99.90;;;;;;5034947;28;20562;-64
2022/02/09 08:50:58;;;;;;;4.22;1.42;;;9.80;99.90;;;;;;5051958;28;20053;-65
2022/02/09 08:53:25;;;;;;;147.70;107.53;;;9.90;99.90;;;;;;5056665;28;20468;-64
2022/02/09 08:55:53;;;;;;;106.43;86.13;;;9.90;99.90;;;;;;5057886;28;20051;-63
2022/02/09 08:58:21;;;;;;;19.00;13.57;;;10.10;99.90;;;;;;5050609;28;20485;-63
2022/02/09 09:00:49;;;;;;;9.02;4.63;;;10.10;99.90;;;;;;5055101;28;20045;-65
2022/02/09 09:03:26;;;;;;;6.65;2.90;;;10.20;99.90;;;;;;5053428;28;20507;-66
2022/02/09 09:05:58;;;;;;;4.75;2.05;;;10.30;99.90;;;;;;5052919;28;20060;-63
2022/02/09 10:34:10;;;;;;;3.55;1.92;;;11.10;99.90;;;;;;5069872;28;20059;-64
2022/02/09 10:36:51;;;;;;;4.25;1.92;;;11.20;99.90;;;;;;5057742;28;20060;-63
2022/02/09 10:39:23;;;;;;;3.72;1.70;;;11.20;99.90;;;;;;5070993;28;20503;-63
2022/02/09 10:41:51;;;;;;;2.42;1.48;;;11.20;99.90;;;;;;5070490;28;20559;-64
2022/02/09 10:44:22;;;;;;;7.95;2.13;;;11.30;99.90;;;;;;5061133;28;20048;-63
2022/02/09 10:46:52;;;;;;;5.10;1.70;;;11.40;99.90;;;;;;5052823;28;20041;-54
2022/02/09 10:49:25;;;;;;;4.80;2.47;;;11.50;99.90;;;;;;5063546;28;20044;-65
2022/02/09 10:52:08;;;;;;;2.13;1.45;;;11.60;99.90;;;;;;5051823;28;20053;-66
2022/02/09 10:54:35;;;;;;;1.67;1.13;;;11.80;99.90;;;;;;5051009;28;20060;-67
2022/02/09 10:57:07;;;;;;;2.55;1.40;;;11.90;98.80;;;;;;5047850;28;20057;-67
2022/02/09 10:59:37;;;;;;;4.13;1.23;;;12.10;99.10;;;;;;5049838;28;20049;-67
2022/02/09 11:02:05;;;;;;;3.38;1.52;;;12.20;97.50;;;;;;5052310;28;20548;-63
2022/02/09 11:04:33;;;;;;;4.13;1.40;;;12.30;97.70;;;;;;5054187;28;20512;-64
2022/02/09 11:07:00;;;;;;;3.53;1.00;;;12.50;96.30;;;;;;5049361;28;20152;-63
2022/02/09 11:09:28;;;;;;;3.33;0.95;;;12.60;94.70;;;;;;5037153;28;20041;-63
2022/02/09 11:11:55;;;;;;;2.85;1.52;;;12.70;94.50;;;;;;5057353;28;20046;-63
2022/02/09 11:14:26;;;;;;;4.97;1.92;;;12.80;93.20;;;;;;5063398;28;20072;-63
2022/02/09 11:17:01;;;;;;;5.55;1.80;;;12.80;93.90;;;;;;5053654;28;20508;-63
2022/02/09 11:19:36;;;;;;;3.50;1.13;;;12.80;92.90;;;;;;5053571;28;20049;-63
2022/02/09 11:22:11;;;;;;;5.90;1.75;;;12.90;94.30;;;;;;5053982;28;20749;-64
2022/02/09 11:24:47;;;;;;;5.70;1.60;;;13.00;93.10;;;;;;5055793;28;20076;-62
2022/02/09 11:27:35;;;;;;;4.60;1.42;;;13.10;92.90;;;;;;5055773;28;20041;-63
2022/02/09 11:30:20;;;;;;;3.78;1.30;;;13.10;92.30;;;;;;5053235;28;20053;-66
2022/02/09 11:33:31;;;;;;;2.85;0.90;;;13.20;92.20;;;;;;5060742;28;20048;-63
2022/02/09 11:36:06;;;;;;;5.43;1.27;;;13.20;91.50;;;;;;5056876;28;20037;-63
2022/02/09 11:38:41;;;;;;;5.45;2.28;;;13.30;91.60;;;;;;5054040;28;20048;-64
2022/02/09 11:41:13;;;;;;;4.05;1.20;;;13.30;90.70;;;;;;5054352;28;20049;-63
2022/02/09 11:44:07;;;;;;;1.13;0.80;;;13.20;90.80;;;;;;5054239;28;20049;-63
2022/02/09 11:47:16;;;;;;;5.90;1.38;;;13.30;91.20;;;;;;5071203;28;20055;-63
2022/02/09 11:52:50;;;;;;;6.40;1.48;;;13.30;91.00;;;;;;5034556;28;20045;-63
2022/02/09 12:01:08;;;;;;;5.40;1.67;;;13.20;90.30;;;;;;5059001;28;20053;-62
2022/02/09 12:09:41;;;;;;;14.73;8.13;;;13.60;91.80;;;;;;5065488;28;20056;-65
2022/02/09 12:12:13;;;;;;;6.82;2.25;;;13.60;93.00;;;;;;5053869;28;20120;-64
2022/02/09 12:17:33;;;;;;;3.78;2.30;;;13.60;94.50;;;;;;5073429;28;20056;-64
2022/02/09 12:20:33;;;;;;;5.43;2.33;;;13.60;94.20;;;;;;5060113;28;20049;-64
2022/02/09 12:25:45;;;;;;;4.70;1.30;;;13.60;93.50;;;;;;5053376;28;20045;-67
2022/02/09 12:28:16;;;;;;;3.03;1.42;;;13.60;92.10;;;;;;5052326;28;20445;-64
2022/02/09 12:30:46;;;;;;;4.65;1.63;;;13.60;92.10;;;;;;5050998;28;20131;-64
2022/02/09 12:33:18;;;;;;;8.77;2.33;;;13.60;92.30;;;;;;5047555;28;20074;-62
2022/02/09 12:35:45;;;;;;;4.53;1.50;;;13.60;93.80;;;;;;5072769;28;20056;-63
2022/02/09 12:38:12;;;;;;;5.90;2.03;;;13.70;94.20;;;;;;5055589;28;20049;-64
2022/02/09 12:40:39;;;;;;;5.05;1.40;;;13.80;94.60;;;;;;5054624;28;20049;-63
2022/02/09 12:43:12;;;;;;;3.78;2.15;;;13.80;92.50;;;;;;5035443;28;20132;-63
2022/02/09 12:45:45;;;;;;;5.95;3.45;;;13.90;92.60;;;;;;5051685;28;20049;-63
2022/02/09 12:48:12;;;;;;;4.72;2.42;;;14.00;91.30;;;;;;5045707;28;20056;-62
2022/02/09 12:50:41;;;;;;;2.75;1.65;;;14.00;90.70;;;;;;5059880;28;20075;-63
2022/02/09 12:53:08;;;;;;;3.75;1.80;;;14.00;90.70;;;;;;5052516;28;20049;-63
2022/02/09 12:55:41;;;;;;;2.22;1.55;;;14.00;90.20;;;;;;5052905;28;20443;-64
2022/02/09 12:58:09;;;;;;;3.03;1.65;;;13.90;90.60;;;;;;5046547;28;20049;-66
2022/02/09 13:00:50;;;;;;;7.15;1.70;;;13.90;89.40;;;;;;5048665;28;20393;-65
2022/02/09 13:03:18;;;;;;;3.47;2.15;;;13.90;89.70;;;;;;5030250;28;20188;-65
2022/02/09 13:05:56;;;;;;;19.52;16.05;;;13.80;90.50;;;;;;5069625;28;20063;-65
2022/02/09 13:08:24;;;;;;;13.95;10.88;;;13.80;89.50;;;;;;5051430;28;20056;-65
2022/02/09 13:11:28;;;;;;;5.97;2.55;;;13.70;90.50;;;;;;5057108;28;20060;-65
2022/02/09 13:13:51;;;;;;;6.05;2.97;;;13.60;90.40;;;;;;5058826;28;20063;-66
2022/02/09 13:16:40;;;;;;;;;;;13.50;90.90;;;;;;5051526;28;20052;-65
2022/02/09 14:17:49;;;;;;;3.38;1.60;;;13.50;92.20;;;;;;5054001;28;20155;-64
2022/02/09 14:48:23;;;;;;;14.40;11.18;;;13.60;90.60;;;;;;5061475;28;20376;-64
2022/02/09 14:56:01;;;;;;;6.97;4.90;;;13.40;91.30;;;;;;5055724;28;20044;-64
2022/02/09 14:58:33;;;;;;;3.28;2.05;;;13.30;91.40;;;;;;5041485;28;20050;-63
2022/02/09 15:01:12;;;;;;;4.60;1.65;;;13.20;91.30;;;;;;5033805;28;20057;-67
2022/02/09 15:04:10;;;;;;;6.97;1.80;;;13.10;91.50;;;;;;5019611;28;20045;-66
2022/02/09 15:06:52;;;;;;;4.38;1.85;;;13.10;92.00;;;;;;5034597;28;20053;-64
2022/02/09 15:12:30;;;;;;;4.45;1.80;;;13.20;92.20;;;;;;5023458;28;20045;-64
2022/02/09 15:22:38;;;;;;;3.50;1.50;;;13.20;90.60;;;;;;5053848;28;20139;-64
2022/02/09 15:25:15;;;;;;;3.42;1.75;;;13.20;89.90;;;;;;5053199;28;20056;-64
2022/02/09 15:27:42;;;;;;;5.55;2.28;;;13.20;90.20;;;;;;5054563;28;20127;-64
2022/02/09 15:30:10;;;;;;;2.75;1.55;;;13.20;90.00;;;;;;5053386;28;20053;-64
2022/02/09 15:32:42;;;;;;;3.05;1.80;;;13.20;90.50;;;;;;5053558;28;20072;-63
2022/02/09 15:37:46;;;;;;;3.45;1.83;;;13.20;90.10;;;;;;5073123;28;20057;-64
2022/02/09 15:40:30;;;;;;;36.60;27.77;;;13.20;90.30;;;;;;5071895;28;20051;-65
2022/02/09 16:10:14;;;;;;;6.97;2.00;;;12.90;92.10;;;;;;5063765;28;20036;-65
2022/02/09 16:24:11;;;;;;;4.63;2.13;;;12.80;92.80;;;;;;5050887;28;20052;-65
2022/02/09 16:46:22;;;;;;;6.57;2.00;;;12.60;94.00;;;;;;5046436;28;20463;-62
2022/02/09 16:49:22;;;;;;;7.03;2.08;;;12.60;94.40;;;;;;5034918;28;20053;-62
2022/02/09 16:51:58;;;;;;;3.97;1.75;;;12.60;94.30;;;;;;5052260;28;20056;-62
2022/02/09 16:54:36;;;;;;;2.90;1.50;;;12.50;94.30;;;;;;5053414;28;20056;-67
2022/02/09 17:19:02;;;;;;;4.60;2.00;;;12.40;97.90;;;;;;5050568;28;20060;-61
2022/02/09 17:21:32;;;;;;;5.35;2.47;;;12.30;99.00;;;;;;5048627;28;20067;-63
2022/02/09 17:24:02;;;;;;;7.68;3.38;;;12.30;99.20;;;;;;5037530;28;20049;-66
2022/02/09 17:26:29;;;;;;;3.92;2.30;;;12.30;98.70;;;;;;5060651;28;20063;-63
2022/02/09 17:29:02;;;;;;;4.80;2.38;;;12.30;99.40;;;;;;5050559;28;20091;-64
2022/02/09 17:58:37;;;;;;;26.05;23.25;;;12.00;99.60;;;;;;5051560;28;20147;-61
2022/02/09 18:01:04;;;;;;;10.25;8.68;;;12.00;99.90;;;;;;5066085;28;20063;-60
2022/02/09 18:03:31;;;;;;;6.53;5.18;;;11.90;99.60;;;;;;5040755;28;20045;-62
2022/02/09 18:06:12;;;;;;;10.15;4.53;;;11.90;99.90;;;;;;5053041;28;20056;-63
2022/02/09 18:09:07;;;;;;;33.97;4.55;;;11.90;99.90;;;;;;5068543;28;20045;-65
2022/02/09 18:14:21;;;;;;;6.90;2.85;;;11.90;99.90;;;;;;5054114;28;20053;-73
2022/02/09 18:25:32;;;;;;;6.75;3.50;;;12.00;99.90;;;;;;5055744;28;20056;-64
2022/02/09 18:31:22;;;;;;;21.48;19.08;;;12.00;99.90;;;;;;5052260;28;20053;-67
2022/02/09 18:33:40;;;;;;;94.32;84.25;;;12.10;99.90;;;;;;5059912;28;20041;-66
2022/02/09 18:44:41;;;;;;;83.43;71.45;;;12.00;99.90;;;;;;5053416;28;20154;-61
2022/02/09 18:47:13;;;;;;;30.27;22.98;;;11.90;99.90;;;;;;5070064;28;20148;-63
2022/02/09 19:03:23;;;;;;;17.48;5.13;;;11.50;99.90;;;;;;5050412;28;20053;-62
2022/02/09 19:05:52;;;;;;;11.95;4.68;;;11.40;99.90;;;;;;5051541;28;20045;-62
2022/02/09 19:08:51;;;;;;;10.10;4.43;;;11.30;99.90;;;;;;5051298;28;20048;-63
2022/02/09 19:19:51;;;;;;;11.38;3.83;;;11.00;99.90;;;;;;5051271;28;20048;-62
2022/02/09 19:30:48;;;;;;;7.22;3.65;;;10.70;99.90;;;;;;5060785;28;20049;-62
2022/02/09 19:52:34;;;;;;;6.75;4.25;;;10.40;99.90;;;;;;5055465;28;20057;-62
2022/02/09 19:55:22;;;;;;;92.47;60.75;;;10.40;99.90;;;;;;5055796;28;20382;-62
2022/02/09 19:57:51;;;;;;;18.60;9.88;;;10.50;99.90;;;;;;5073703;28;20048;-62
2022/02/09 20:00:21;;;;;;;7.93;4.82;;;10.50;99.90;;;;;;5062323;28;20045;-65
2022/02/09 20:02:48;;;;;;;9.50;5.45;;;10.50;99.90;;;;;;5073868;28;20099;-64
2022/02/09 20:05:15;;;;;;;9.30;4.72;;;10.50;99.90;;;;;;5073088;28;20045;-62
2022/02/09 20:07:42;;;;;;;6.80;4.72;;;10.60;99.90;;;;;;5072395;28;20056;-62
2022/02/09 20:10:11;;;;;;;5.20;3.42;;;10.60;99.90;;;;;;5068437;28;20557;-62
2022/02/09 20:12:41;;;;;;;11.15;4.05;;;10.60;99.90;;;;;;5038854;28;20054;-62
2022/02/09 20:15:12;;;;;;;7.70;4.80;;;10.60;99.90;;;;;;5039015;28;20044;-64
2022/02/09 20:17:40;;;;;;;15.02;5.43;;;10.60;99.90;;;;;;5054325;28;20122;-62
2022/02/09 20:20:14;;;;;;;7.85;3.92;;;10.60;99.90;;;;;;5061729;28;20044;-61
2022/02/09 20:22:43;;;;;;;8.77;3.90;;;10.60;99.90;;;;;;5073508;28;20443;-67
2022/02/09 20:25:11;;;;;;;5.28;3.53;;;10.60;99.90;;;;;;5071350;28;20048;-63
2022/02/09 20:27:39;;;;;;;8.88;4.40;;;10.60;99.90;;;;;;5055429;28;20045;-71
2022/02/09 20:30:09;;;;;;;10.73;4.97;;;10.60;99.90;;;;;;5056885;28;20060;-61
2022/02/09 20:32:42;;;;;;;40.05;29.88;;;10.60;99.90;;;;;;5054396;28;20049;-61
2022/02/09 20:35:12;;;;;;;74.63;66.60;;;10.70;99.90;;;;;;5065193;28;20041;-62
2022/02/09 20:37:44;;;;;;;;;;;10.70;99.90;;;;;;5059931;28;20063;-61
2022/02/09 20:40:18;;;;;;;14.70;8.63;;;10.70;99.90;;;;;;5031951;28;19925;-62
2022/02/09 20:42:53;;;;;;;13.40;5.70;;;10.80;99.90;;;;;;5032257;28;20056;-63
2022/02/09 20:45:26;;;;;;;11.07;5.05;;;10.80;99.90;;;;;;5032927;28;20057;-61
2022/02/09 20:47:59;;;;;;;10.07;5.68;;;10.80;99.90;;;;;;5037674;28;20040;-61
2022/02/09 20:50:26;;;;;;;7.13;5.15;;;10.90;99.90;;;;;;5051321;28;20497;-61
2022/02/09 20:52:53;;;;;;;12.43;5.68;;;10.90;99.90;;;;;;5052054;28;20056;-61
2022/02/09 20:55:22;;;;;;;8.95;5.10;;;10.90;99.90;;;;;;5051331;28;20521;-61
2022/02/09 20:57:50;;;;;;;11.70;5.28;;;10.90;99.90;;;;;;5065897;28;20395;-65
2022/02/09 21:03:16;;;;;;;10.45;4.55;;;10.90;99.90;;;;;;5061720;28;20048;-61
2022/02/09 21:13:43;;;;;;;13.10;4.97;;;10.90;99.90;;;;;;5054650;28;20052;-62
2022/02/09 21:16:23;;;;;;;13.63;4.80;;;10.90;99.90;;;;;;5066464;28;20059;-61
2022/02/09 21:54:37;;;;;;;15.05;6.13;;;10.90;99.90;;;;;;5067295;28;20060;-62
2022/02/09 22:21:16;;;;;;;11.90;5.47;;;10.70;99.90;;;;;;5070038;28;20055;-65
2022/02/09 22:48:33;;;;;;;8.68;6.28;;;10.50;99.90;;;;;;5050763;28;20053;-61
2022/02/09 22:56:31;;;;;;;13.80;7.18;;;10.50;99.90;;;;;;5069114;28;20483;-61
2022/02/09 22:59:00;;;;;;;12.05;6.35;;;10.50;99.90;;;;;;5062611;28;20491;-61
2022/02/09 23:01:45;;;;;;;13.38;6.97;;;10.50;99.90;;;;;;5054935;28;20708;-61
2022/02/09 23:06:58;;;;;;;8.57;6.95;;;10.50;99.90;;;;;;5074616;28;20048;-61
2022/02/09 23:12:19;;;;;;;7.07;5.93;;;10.30;99.90;;;;;;5071939;28;20481;-62
2022/02/09 23:29:05;;;;;;;10.63;7.95;;;9.70;99.90;;;;;;5042012;28;20053;-60
2022/02/09 23:56:08;;;;;;;10.70;9.23;;;9.60;99.90;;;;;;5058777;28;20076;-61
